createdAt,value
2019-04-04T00:01:43.637Z,11.87
2019-04-04T00:05:50.465Z,12.00
2019-04-04T00:09:57.349Z,13.07
2019-04-04T00:14:04.198Z,10.87
2019-04-04T00:18:10.960Z,12.13
2019-04-04T00:22:17.891Z,13.17
2019-04-04T00:26:24.711Z,12.93
2019-04-04T00:30:32.851Z,12.83
2019-04-04T00:34:39.573Z,12.50
2019-04-04T00:38:46.471Z,13.40
2019-04-04T00:42:53.292Z,15.20
2019-04-04T00:47:01.836Z,15.83
2019-04-04T00:51:08.709Z,17.10
2019-04-04T00:55:15.906Z,20.20
2019-04-04T00:59:23.673Z,19.00
2019-04-04T01:03:30.725Z,19.13
2019-04-04T01:07:37.724Z,20.07
2019-04-04T01:11:45.266Z,23.30
2019-04-04T01:15:51.949Z,22.27
2019-04-04T01:19:59.479Z,21.67
2019-04-04T01:24:06.266Z,22.20
2019-04-04T01:28:13.044Z,23.00
2019-04-04T01:32:22.668Z,22.37
2019-04-04T01:36:30.458Z,24.20
2019-04-04T01:40:37.400Z,24.87
2019-04-04T01:44:45.237Z,21.77
2019-04-04T01:48:51.951Z,23.47
2019-04-04T01:52:59.382Z,21.67
2019-04-04T01:57:08.122Z,24.97
2019-04-04T02:01:16.606Z,24.57
2019-04-04T02:05:26.808Z,25.17
2019-04-04T02:09:34.605Z,26.07
2019-04-04T02:13:40.883Z,26.73
2019-04-04T02:17:48.295Z,28.83
2019-04-04T02:21:55.043Z,26.63
2019-04-04T02:26:04.904Z,26.87
2019-04-04T02:30:15.208Z,27.83
2019-04-04T02:34:20.251Z,28.07
2019-04-04T02:38:28.125Z,28.80
2019-04-04T02:42:35.426Z,27.87
2019-04-04T02:46:45.520Z,27.67
2019-04-04T02:50:51.100Z,30.37
2019-04-04T02:54:58.592Z,31.73
2019-04-04T02:59:05.532Z,28.77
2019-04-04T03:03:12.279Z,31.90
2019-04-04T03:07:18.944Z,27.73
2019-04-04T03:11:30.533Z,29.30
2019-04-04T03:15:41.084Z,28.07
2019-04-04T03:19:46.244Z,30.97
2019-04-04T03:23:53.777Z,33.10
2019-04-04T03:28:01.734Z,36.80
2019-04-04T03:32:14.385Z,34.60
2019-04-04T03:36:20.240Z,34.73
2019-04-04T03:40:27.093Z,31.43
2019-04-04T03:44:33.788Z,32.40
2019-04-04T03:48:40.579Z,35.17
2019-04-04T03:52:47.301Z,35.23
2019-04-04T03:56:54.029Z,33.43
2019-04-04T04:01:01.682Z,35.37
2019-04-04T04:05:34.016Z,39.53
2019-04-04T04:09:37.559Z,35.63
2019-04-04T04:13:48.912Z,37.93
2019-04-04T04:17:52.631Z,40.10
2019-04-04T04:21:59.333Z,40.60
2019-04-04T04:26:09.325Z,40.47
2019-04-04T04:30:14.954Z,39.77
2019-04-04T04:34:21.645Z,42.37
2019-04-04T04:38:28.445Z,41.13
2019-04-04T04:42:35.227Z,46.00
2019-04-04T04:46:41.939Z,40.00
2019-04-04T04:50:48.767Z,46.43
2019-04-04T04:54:55.708Z,41.27
2019-04-04T04:59:02.578Z,44.13
2019-04-04T05:03:10.409Z,39.70
2019-04-04T05:07:17.115Z,42.93
2019-04-04T05:11:23.843Z,46.10
2019-04-04T05:15:32.440Z,41.57
2019-04-04T05:19:39.032Z,41.47
2019-04-04T05:23:47.002Z,48.10
2019-04-04T05:27:54.272Z,45.90
2019-04-04T05:32:00.952Z,48.70
2019-04-04T05:36:07.678Z,46.27
2019-04-04T05:40:16.051Z,46.43
2019-04-04T05:44:22.731Z,43.90
2019-04-04T05:48:29.716Z,45.93
2019-04-04T05:52:36.577Z,45.80
2019-04-04T05:56:44.733Z,48.33
2019-04-04T06:00:51.940Z,44.93
2019-04-04T06:04:58.705Z,43.50
2019-04-04T06:09:07.587Z,45.50
2019-04-04T06:13:14.262Z,42.70
2019-04-04T06:17:21.866Z,39.27
2019-04-04T06:21:28.594Z,43.43
2019-04-04T06:25:36.008Z,39.50
2019-04-04T06:29:42.699Z,39.77
2019-04-04T06:33:49.418Z,44.17
2019-04-04T06:37:56.257Z,39.27
2019-04-04T06:42:03.952Z,36.47
2019-04-04T06:46:11.006Z,40.33
2019-04-04T06:50:17.725Z,37.70
2019-04-04T06:54:25.688Z,44.63
2019-04-04T06:58:32.820Z,42.17
2019-04-04T07:02:39.512Z,41.70
2019-04-04T07:06:46.216Z,39.43
2019-04-04T07:10:58.201Z,37.70
2019-04-04T07:15:02.360Z,34.17
2019-04-04T07:19:09.162Z,35.47
2019-04-04T07:23:16.842Z,34.30
2019-04-04T07:27:24.570Z,31.57
2019-04-04T07:31:33.435Z,32.30
2019-04-04T07:35:39.624Z,30.40
2019-04-04T07:39:46.419Z,30.57
2019-04-04T07:43:53.181Z,28.27
2019-04-04T07:47:59.796Z,29.33
2019-04-04T07:52:08.440Z,30.83
2019-04-04T07:56:15.185Z,27.43
2019-04-04T08:00:21.904Z,26.03
2019-04-04T08:04:28.598Z,25.80
2019-04-04T08:08:35.262Z,24.30
2019-04-04T08:12:41.954Z,22.00
2019-04-04T08:16:48.726Z,23.03
2019-04-04T08:20:55.636Z,22.87
2019-04-04T08:25:03.609Z,21.33
2019-04-04T08:29:10.475Z,19.57
2019-04-04T08:33:17.451Z,20.53
2019-04-04T08:37:24.140Z,17.40
2019-04-04T08:41:30.823Z,19.37
2019-04-04T08:45:37.487Z,17.90
2019-04-04T08:49:44.300Z,19.37
2019-04-04T08:53:53.836Z,17.70
2019-04-04T08:58:00.567Z,19.47
2019-04-04T09:02:07.282Z,19.60
2019-04-04T09:06:14.026Z,20.27
2019-04-04T09:10:20.922Z,15.90
2019-04-04T09:14:27.764Z,14.30
2019-04-04T09:18:34.681Z,16.73
2019-04-04T09:22:41.609Z,14.23
2019-04-04T09:26:48.535Z,13.47
2019-04-04T09:30:55.535Z,13.63
2019-04-04T09:35:02.496Z,13.10
2019-04-04T09:39:10.413Z,13.83
2019-04-04T09:43:17.220Z,10.60
2019-04-04T09:47:24.377Z,11.77
2019-04-04T09:51:31.256Z,12.43
2019-04-04T09:55:38.295Z,11.40
2019-04-04T09:59:45.187Z,11.10
2019-04-04T10:03:53.068Z,10.70
2019-04-04T10:07:59.787Z,10.07
2019-04-04T10:12:06.639Z,10.67
2019-04-04T10:16:13.361Z,10.73
2019-04-04T10:20:20.136Z,10.93
2019-04-04T10:24:26.935Z,9.70
2019-04-04T10:28:33.853Z,9.23
2019-04-04T10:32:41.808Z,8.40
2019-04-04T10:36:49.923Z,9.57
2019-04-04T10:40:56.707Z,8.30
2019-04-04T10:45:03.571Z,11.07
2019-04-04T10:49:11.098Z,9.17
2019-04-04T10:53:18.074Z,9.47
2019-04-04T10:57:24.772Z,7.77
2019-04-04T11:01:31.717Z,8.80
2019-04-04T11:05:38.572Z,8.23
2019-04-04T11:09:45.425Z,9.83
2019-04-04T11:13:52.258Z,7.97
2019-04-04T11:17:59.238Z,7.17
2019-04-04T11:22:06.247Z,7.07
2019-04-04T11:26:13.123Z,7.80
2019-04-04T11:30:21.812Z,7.37
2019-04-04T11:34:28.800Z,9.60
2019-04-04T11:38:35.570Z,8.20
2019-04-04T11:42:42.548Z,8.67
2019-04-04T11:46:49.465Z,8.10
2019-04-04T11:50:56.545Z,8.00
2019-04-04T11:55:03.845Z,7.20
2019-04-04T11:59:10.582Z,8.20
2019-04-04T12:03:17.335Z,7.30
2019-04-04T12:07:24.229Z,8.27
2019-04-04T12:11:31.052Z,7.50
2019-04-04T12:15:37.854Z,6.80
2019-04-04T12:19:44.581Z,7.93
2019-04-04T12:23:51.766Z,8.53
2019-04-04T12:27:59.092Z,7.53
2019-04-04T12:32:05.809Z,7.30
2019-04-04T12:36:24.105Z,6.93
2019-04-04T12:40:21.463Z,7.23
2019-04-04T12:44:28.374Z,6.63
2019-04-04T12:48:35.202Z,6.73
2019-04-04T12:52:42.024Z,7.67
2019-04-04T12:56:49.034Z,7.33
2019-04-04T13:00:55.824Z,7.03
2019-04-04T13:05:02.628Z,8.17
2019-04-04T13:09:10.375Z,7.83
2019-04-04T13:13:17.137Z,6.63
2019-04-04T13:17:23.960Z,6.73
2019-04-04T13:21:30.607Z,6.23
2019-04-04T13:25:37.304Z,6.60
2019-04-04T13:29:43.966Z,5.90
2019-04-04T13:33:50.729Z,5.80
2019-04-04T13:37:57.426Z,6.63
2019-04-04T13:42:04.130Z,6.80
2019-04-04T13:46:11.218Z,6.43
2019-04-04T13:50:20.453Z,7.13
2019-04-04T13:54:26.737Z,7.50
2019-04-04T13:58:33.680Z,6.63
2019-04-04T14:02:40.411Z,7.77
2019-04-04T14:06:47.088Z,7.33
2019-04-04T14:10:58.333Z,6.67
2019-04-04T14:15:02.224Z,7.67
2019-04-04T14:19:09.045Z,6.57
2019-04-04T14:23:16.062Z,6.10
2019-04-04T14:27:22.752Z,7.20
2019-04-04T14:31:29.434Z,7.07
2019-04-04T14:35:36.086Z,6.37
2019-04-04T14:39:42.816Z,5.13
2019-04-04T14:43:49.605Z,5.87
2019-04-04T14:47:56.293Z,5.67
2019-04-04T14:52:03.052Z,5.30
2019-04-04T14:56:09.758Z,5.30
2019-04-04T15:00:18.297Z,5.43
2019-04-04T15:04:24.948Z,5.43
2019-04-04T15:08:31.737Z,5.60
2019-04-04T15:12:40.681Z,5.30
2019-04-04T15:16:48.889Z,5.27
2019-04-04T15:20:57.005Z,4.53
2019-04-04T15:25:03.889Z,4.10
2019-04-04T15:29:10.893Z,4.27
2019-04-04T15:33:17.993Z,4.07
2019-04-04T15:37:26.186Z,4.23
2019-04-04T15:41:37.319Z,10.63
2019-04-04T15:45:42.926Z,3.77
2019-04-04T15:49:50.179Z,3.90
2019-04-04T15:53:57.782Z,6.40
2019-04-04T15:58:04.594Z,5.10
2019-04-04T16:02:17.312Z,3.83
2019-04-04T16:06:25.394Z,3.03
2019-04-04T16:10:32.315Z,3.20
2019-04-04T16:14:39.167Z,4.73
2019-04-04T16:18:48.823Z,3.30
2019-04-04T16:22:57.936Z,3.40
2019-04-04T16:27:04.711Z,4.10
2019-04-04T16:31:12.620Z,3.60
2019-04-04T16:35:19.411Z,6.20
2019-04-04T16:39:26.134Z,4.87
2019-04-04T16:43:33.040Z,4.80
2019-04-04T16:47:39.807Z,5.50
2019-04-04T16:51:48.272Z,6.50
2019-04-04T16:55:55.270Z,5.43
2019-04-04T17:00:02.578Z,6.47
2019-04-04T17:04:09.480Z,5.00
2019-04-04T17:08:16.278Z,5.90
2019-04-04T17:12:23.183Z,6.53
2019-04-04T17:16:30.356Z,5.73
2019-04-04T17:20:38.778Z,6.30
2019-04-04T17:24:45.494Z,6.67
2019-04-04T17:28:52.760Z,6.07
2019-04-04T17:33:00.000Z,6.53
2019-04-04T17:37:07.590Z,6.80
2019-04-04T17:41:14.533Z,5.93
2019-04-04T17:45:23.145Z,6.80
2019-04-04T17:49:30.697Z,6.03
2019-04-04T17:53:39.892Z,9.37
2019-04-04T17:57:46.963Z,7.10
2019-04-04T18:01:58.412Z,8.37
2019-04-04T18:06:06.013Z,7.47
2019-04-04T18:10:20.051Z,8.03
2019-04-04T18:14:33.002Z,7.10
2019-04-04T18:18:39.797Z,6.47
2019-04-04T18:22:46.736Z,6.40
2019-04-04T18:26:54.880Z,6.30
2019-04-04T18:31:01.687Z,6.00
2019-04-04T18:35:10.658Z,7.27
2019-04-04T18:39:26.372Z,6.30
2019-04-04T18:43:27.630Z,6.23
2019-04-04T18:47:34.447Z,7.47
2019-04-04T18:51:41.487Z,8.87
2019-04-04T18:55:48.251Z,6.70
2019-04-04T18:59:58.280Z,7.17
2019-04-04T19:04:05.195Z,7.80
2019-04-04T19:08:12.108Z,6.33
2019-04-04T19:12:18.923Z,7.13
2019-04-04T19:16:26.063Z,11.47
2019-04-04T19:20:36.123Z,7.73
2019-04-04T19:24:44.587Z,6.20
2019-04-04T19:28:57.410Z,7.93
2019-04-04T19:33:04.849Z,9.37
2019-04-04T19:37:12.208Z,8.83
2019-04-04T19:41:19.802Z,8.37
2019-04-04T19:45:27.220Z,7.43
2019-04-04T19:49:34.148Z,9.17
2019-04-04T19:53:41.122Z,9.13
2019-04-04T19:57:49.313Z,8.30
2019-04-04T20:01:56.387Z,9.20
2019-04-04T20:06:03.360Z,8.77
2019-04-04T20:10:10.847Z,8.67
2019-04-04T20:14:18.234Z,9.33
2019-04-04T20:18:25.321Z,9.57
2019-04-04T20:22:32.887Z,12.17
2019-04-04T20:26:40.510Z,12.10
2019-04-04T20:30:49.282Z,11.73
2019-04-04T20:34:56.415Z,12.13
2019-04-04T20:39:04.712Z,11.63
2019-04-04T20:43:14.261Z,13.07
2019-04-04T20:47:21.018Z,12.07
2019-04-04T20:51:27.852Z,15.87
2019-04-04T20:55:34.657Z,14.03
2019-04-04T20:59:47.884Z,12.80
2019-04-04T21:03:54.559Z,12.80
2019-04-04T21:08:02.467Z,13.50
2019-04-04T21:12:11.306Z,13.07
2019-04-04T21:16:18.847Z,15.00
2019-04-04T21:20:26.082Z,14.00
2019-04-04T21:24:32.895Z,14.07
2019-04-04T21:28:39.641Z,13.90
2019-04-04T21:32:46.442Z,14.23
2019-04-04T21:36:53.405Z,14.03
2019-04-04T21:41:00.931Z,13.97
2019-04-04T21:45:08.129Z,12.67
2019-04-04T21:49:15.036Z,12.87
2019-04-04T21:53:23.438Z,10.93
2019-04-04T21:57:30.120Z,10.70
2019-04-04T22:01:36.900Z,12.67
2019-04-04T22:05:44.907Z,9.17
2019-04-04T22:09:51.643Z,8.80
2019-04-04T22:13:58.484Z,9.07
2019-04-04T22:18:05.471Z,7.87
2019-04-04T22:22:12.154Z,8.80
2019-04-04T22:26:18.905Z,7.53
2019-04-04T22:30:25.753Z,7.80
2019-04-04T22:34:33.191Z,7.83
2019-04-04T22:38:39.851Z,8.10
2019-04-04T22:42:49.092Z,7.57
2019-04-04T22:46:55.958Z,7.27
2019-04-04T22:51:02.611Z,8.63
2019-04-04T22:55:10.400Z,6.40
2019-04-04T22:59:17.276Z,7.97
2019-04-04T23:03:27.227Z,5.93
2019-04-04T23:07:34.417Z,6.53
2019-04-04T23:11:45.440Z,6.30
2019-04-04T23:15:52.671Z,7.50
2019-04-04T23:20:01.426Z,6.43
2019-04-04T23:24:08.422Z,6.10
2019-04-04T23:28:15.189Z,7.83
2019-04-04T23:32:22.081Z,6.10
2019-04-04T23:36:34.793Z,6.83
2019-04-04T23:40:37.242Z,5.97
2019-04-04T23:44:43.914Z,7.40
2019-04-04T23:48:50.653Z,7.00
2019-04-04T23:52:57.350Z,7.20
2019-04-04T23:57:04.036Z,7.20
